createdAt,value
2019-05-25T00:02:14.090Z,2.20
2019-05-25T00:04:42.393Z,1.90
2019-05-25T00:07:10.681Z,1.97
2019-05-25T00:09:38.973Z,1.80
2019-05-25T00:12:07.326Z,2.03
2019-05-25T00:14:35.625Z,1.80
2019-05-25T00:17:03.917Z,1.90
2019-05-25T00:19:32.204Z,2.27
2019-05-25T00:22:00.482Z,2.20
2019-05-25T00:24:29.048Z,1.97
2019-05-25T00:26:57.331Z,1.73
2019-05-25T00:29:25.621Z,1.90
2019-05-25T00:31:53.900Z,2.13
2019-05-25T00:34:22.272Z,2.00
2019-05-25T00:36:50.548Z,2.33
2019-05-25T00:39:18.846Z,1.87
2019-05-25T00:41:47.393Z,1.90
2019-05-25T00:44:15.679Z,1.80
2019-05-25T00:46:43.963Z,1.97
2019-05-25T00:49:12.271Z,1.97
2019-05-25T00:51:40.553Z,2.20
2019-05-25T00:54:08.919Z,2.13
2019-05-25T00:56:37.273Z,1.93
2019-05-25T00:59:05.551Z,2.00
2019-05-25T01:01:33.837Z,1.87
2019-05-25T01:04:02.114Z,1.90
2019-05-25T01:06:30.410Z,1.70
2019-05-25T01:08:58.696Z,2.00
2019-05-25T01:11:26.987Z,2.00
2019-05-25T01:13:55.274Z,1.93
2019-05-25T01:16:23.568Z,1.90
2019-05-25T01:18:51.848Z,2.00
2019-05-25T01:21:20.148Z,1.93
2019-05-25T01:23:48.441Z,2.27
2019-05-25T01:26:16.746Z,1.90
2019-05-25T01:28:45.027Z,2.00
2019-05-25T01:31:13.388Z,2.13
2019-05-25T01:33:41.661Z,2.00
2019-05-25T01:36:09.972Z,2.00
2019-05-25T01:38:38.245Z,2.07
2019-05-25T01:41:06.541Z,1.97
2019-05-25T01:43:34.835Z,2.37
2019-05-25T01:46:03.696Z,2.07
2019-05-25T01:48:31.970Z,1.97
2019-05-25T01:51:00.271Z,2.27
2019-05-25T01:53:28.546Z,2.03
2019-05-25T01:55:56.847Z,2.00
2019-05-25T01:58:25.362Z,2.60
2019-05-25T02:00:53.653Z,2.70
2019-05-25T02:03:21.961Z,2.70
2019-05-25T02:05:51.889Z,2.90
2019-05-25T02:08:20.195Z,2.90
2019-05-25T02:10:48.463Z,3.03
2019-05-25T02:13:16.936Z,3.20
2019-05-25T02:15:45.215Z,2.93
2019-05-25T02:18:13.508Z,3.20
2019-05-25T02:20:41.779Z,3.10
2019-05-25T02:23:10.145Z,3.00
2019-05-25T02:25:38.429Z,3.20
2019-05-25T02:28:06.721Z,2.90
2019-05-25T02:30:34.996Z,2.50
2019-05-25T02:33:03.329Z,2.93
2019-05-25T02:35:31.638Z,2.70
2019-05-25T02:37:59.998Z,2.87
2019-05-25T02:40:28.477Z,2.83
2019-05-25T02:42:57.230Z,2.90
2019-05-25T02:45:25.522Z,3.00
2019-05-25T02:47:53.872Z,2.73
2019-05-25T02:50:22.437Z,2.50
2019-05-25T02:52:53.103Z,3.00
2019-05-25T02:55:33.669Z,2.50
2019-05-25T02:57:50.801Z,2.53
2019-05-25T03:00:22.271Z,2.40
2019-05-25T03:02:50.554Z,2.97
2019-05-25T03:05:18.927Z,2.70
2019-05-25T03:07:47.207Z,2.83
2019-05-25T03:10:15.726Z,2.73
2019-05-25T03:12:44.973Z,2.80
2019-05-25T03:15:13.800Z,2.63
2019-05-25T03:17:42.095Z,2.77
2019-05-25T03:20:10.508Z,2.83
2019-05-25T03:22:38.821Z,3.20
2019-05-25T03:25:08.135Z,2.80
2019-05-25T03:27:36.501Z,3.03
2019-05-25T03:30:09.841Z,2.93
2019-05-25T03:32:38.264Z,2.87
2019-05-25T03:35:07.415Z,2.87
2019-05-25T03:37:35.770Z,2.73
2019-05-25T03:40:06.905Z,3.17
2019-05-25T03:42:35.285Z,2.83
2019-05-25T03:45:05.019Z,2.93
2019-05-25T03:47:33.286Z,3.00
2019-05-25T03:50:01.573Z,3.50
2019-05-25T03:52:29.894Z,3.10
2019-05-25T03:54:58.181Z,2.80
2019-05-25T03:57:26.484Z,3.13
2019-05-25T03:59:54.757Z,3.30
2019-05-25T04:02:23.036Z,2.83
2019-05-25T04:04:51.328Z,3.30
2019-05-25T04:07:19.613Z,3.40
2019-05-25T04:09:47.896Z,3.70
2019-05-25T04:12:16.173Z,3.40
2019-05-25T04:14:44.465Z,3.20
2019-05-25T04:17:12.744Z,3.47
2019-05-25T04:19:41.037Z,3.40
2019-05-25T04:22:09.322Z,3.80
2019-05-25T04:24:37.619Z,3.60
2019-05-25T04:27:06.154Z,3.77
2019-05-25T04:29:34.458Z,3.63
2019-05-25T04:32:02.801Z,3.40
2019-05-25T04:34:31.098Z,3.93
2019-05-25T04:36:59.392Z,3.87
2019-05-25T04:39:27.704Z,3.60
2019-05-25T04:41:55.988Z,3.43
2019-05-25T04:44:24.295Z,3.53
2019-05-25T04:46:52.577Z,3.50
2019-05-25T04:49:20.876Z,3.20
2019-05-25T04:51:49.151Z,3.67
2019-05-25T04:54:17.447Z,3.70
2019-05-25T04:56:45.731Z,3.77
2019-05-25T04:59:14.034Z,3.93
2019-05-25T05:01:42.313Z,3.97
2019-05-25T05:04:10.605Z,4.00
2019-05-25T05:06:38.914Z,4.67
2019-05-25T05:09:07.577Z,5.07
2019-05-25T05:11:35.848Z,4.80
2019-05-25T05:14:04.376Z,5.40
2019-05-25T05:16:32.655Z,5.50
2019-05-25T05:19:00.946Z,5.33
2019-05-25T05:21:29.229Z,5.57
2019-05-25T05:23:57.527Z,5.73
2019-05-25T05:26:25.803Z,5.77
2019-05-25T05:28:54.121Z,5.50
2019-05-25T05:31:23.718Z,5.90
2019-05-25T05:33:52.275Z,5.97
2019-05-25T05:36:21.784Z,6.00
2019-05-25T05:38:50.792Z,6.13
2019-05-25T05:41:19.771Z,6.27
2019-05-25T05:43:48.131Z,6.20
2019-05-25T05:46:17.991Z,5.87
2019-05-25T05:48:49.619Z,6.10
2019-05-25T05:51:22.375Z,6.23
2019-05-25T05:53:53.906Z,6.00
2019-05-25T05:56:22.360Z,6.07
2019-05-25T05:58:50.717Z,6.70
2019-05-25T06:01:19.021Z,6.83
2019-05-25T06:03:47.309Z,6.53
2019-05-25T06:06:15.607Z,6.83
2019-05-25T06:08:43.901Z,6.30
2019-05-25T06:11:12.195Z,6.80
2019-05-25T06:13:40.478Z,6.23
2019-05-25T06:16:08.773Z,6.73
2019-05-25T06:18:37.056Z,6.07
2019-05-25T06:21:06.081Z,7.30
2019-05-25T06:23:34.366Z,6.23
2019-05-25T06:26:02.746Z,6.17
2019-05-25T06:28:31.048Z,6.30
2019-05-25T06:30:59.335Z,6.43
2019-05-25T06:33:27.736Z,6.80
2019-05-25T06:35:56.019Z,6.30
2019-05-25T06:38:24.319Z,6.33
2019-05-25T06:40:52.608Z,6.03
2019-05-25T06:43:20.894Z,6.07
2019-05-25T06:45:49.266Z,5.93
2019-05-25T06:48:17.535Z,6.00
2019-05-25T06:50:45.835Z,5.73
2019-05-25T06:53:14.302Z,6.40
2019-05-25T06:55:43.182Z,5.70
2019-05-25T06:58:11.703Z,5.97
2019-05-25T07:00:39.998Z,5.83
2019-05-25T07:03:08.297Z,6.10
2019-05-25T07:05:36.636Z,5.93
2019-05-25T07:08:05.016Z,6.13
2019-05-25T07:10:33.301Z,6.20
2019-05-25T07:13:02.419Z,6.33
2019-05-25T07:15:30.723Z,7.50
2019-05-25T07:17:59.008Z,6.87
2019-05-25T07:20:27.308Z,8.10
2019-05-25T07:22:55.640Z,9.80
2019-05-25T07:25:24.171Z,10.03
2019-05-25T07:27:59.791Z,9.60
2019-05-25T07:30:22.714Z,10.73
2019-05-25T07:32:51.019Z,11.23
2019-05-25T07:35:19.309Z,11.20
2019-05-25T07:37:47.826Z,11.93
2019-05-25T07:40:17.898Z,13.00
2019-05-25T07:42:46.711Z,13.10
2019-05-25T07:45:15.386Z,14.67
2019-05-25T07:47:43.685Z,15.63
2019-05-25T07:50:14.085Z,17.00
2019-05-25T07:52:42.403Z,17.27
2019-05-25T07:55:10.772Z,16.70
2019-05-25T07:57:39.052Z,16.97
2019-05-25T08:00:07.801Z,17.60
2019-05-25T08:02:36.098Z,17.50
2019-05-25T08:05:05.943Z,17.67
2019-05-25T08:07:34.239Z,14.80
2019-05-25T08:10:02.549Z,13.87
2019-05-25T08:12:32.425Z,14.43
2019-05-25T08:15:00.718Z,14.90
2019-05-25T08:17:29.011Z,14.97
2019-05-25T08:19:57.317Z,14.93
2019-05-25T08:22:25.622Z,15.77
2019-05-25T08:24:53.929Z,15.40
2019-05-25T08:27:22.547Z,16.13
2019-05-25T08:29:50.921Z,13.30
2019-05-25T08:32:19.206Z,11.83
2019-05-25T08:34:47.511Z,11.37
2019-05-25T08:37:15.809Z,9.47
2019-05-25T08:39:44.102Z,9.20
2019-05-25T08:42:12.386Z,8.37
2019-05-25T08:44:40.689Z,8.03
2019-05-25T08:47:08.974Z,6.90
2019-05-25T08:49:38.904Z,6.30
2019-05-25T08:52:07.131Z,6.33
2019-05-25T08:54:35.414Z,5.47
2019-05-25T08:57:03.727Z,6.07
2019-05-25T08:59:31.996Z,6.40
2019-05-25T09:02:00.311Z,6.17
2019-05-25T09:04:28.844Z,5.70
2019-05-25T09:06:57.164Z,5.63
2019-05-25T09:09:25.424Z,5.30
2019-05-25T09:11:53.786Z,5.70
2019-05-25T09:14:22.009Z,5.53
2019-05-25T09:16:50.304Z,5.50
2019-05-25T09:19:18.582Z,5.03
2019-05-25T09:22:01.543Z,5.27
2019-05-25T09:24:17.015Z,5.33
2019-05-25T09:26:45.327Z,5.57
2019-05-25T09:29:16.533Z,6.27
2019-05-25T09:31:44.845Z,5.93
2019-05-25T09:34:13.112Z,6.00
2019-05-25T09:36:41.387Z,6.00
2019-05-25T09:39:09.679Z,6.20
2019-05-25T09:41:37.965Z,6.23
2019-05-25T09:44:06.261Z,6.60
2019-05-25T09:46:34.537Z,6.30
2019-05-25T09:49:02.847Z,7.03
2019-05-25T09:51:31.125Z,7.27
2019-05-25T09:53:59.423Z,7.30
2019-05-25T09:56:27.710Z,7.03
2019-05-25T09:58:55.998Z,7.43
2019-05-25T10:01:24.282Z,7.43
2019-05-25T10:03:52.669Z,6.93
2019-05-25T10:06:20.948Z,7.70
2019-05-25T10:08:49.235Z,7.53
2019-05-25T10:11:17.594Z,9.00
2019-05-25T10:13:45.875Z,10.27
2019-05-25T10:16:14.178Z,11.63
2019-05-25T10:18:45.821Z,12.63
2019-05-25T10:21:15.060Z,13.10
2019-05-25T10:23:43.367Z,13.63
2019-05-25T10:26:11.962Z,13.20
2019-05-25T10:28:40.254Z,13.03
2019-05-25T10:31:08.553Z,12.87
2019-05-25T10:33:36.858Z,13.30
2019-05-25T10:36:05.215Z,12.33
2019-05-25T10:38:33.502Z,12.77
2019-05-25T10:41:01.805Z,13.77
2019-05-25T10:43:30.095Z,13.53
2019-05-25T10:45:58.397Z,13.60
2019-05-25T10:48:26.708Z,13.13
2019-05-25T10:50:54.990Z,13.30
2019-05-25T10:53:23.476Z,12.03
2019-05-25T10:55:51.785Z,12.40
2019-05-25T10:58:20.084Z,12.73
2019-05-25T11:00:48.914Z,11.77
2019-05-25T11:03:17.230Z,13.03
2019-05-25T11:05:45.523Z,11.60
2019-05-25T11:08:13.832Z,11.67
2019-05-25T11:10:42.113Z,11.97
2019-05-25T11:13:10.423Z,12.53
2019-05-25T11:15:38.712Z,13.17
2019-05-25T11:18:07.017Z,12.23
2019-05-25T11:20:35.309Z,11.33
2019-05-25T11:23:03.673Z,10.90
2019-05-25T11:25:31.957Z,9.77
2019-05-25T11:28:00.254Z,11.83
2019-05-25T11:30:28.541Z,11.13
2019-05-25T11:32:56.849Z,10.77
2019-05-25T11:35:25.219Z,10.10
2019-05-25T11:37:53.577Z,11.27
2019-05-25T11:40:22.044Z,12.93
2019-05-25T11:42:50.330Z,9.83
2019-05-25T11:45:18.899Z,10.03
2019-05-25T11:47:47.186Z,10.33
2019-05-25T11:50:15.929Z,11.37
2019-05-25T11:52:44.263Z,10.53
2019-05-25T11:55:12.634Z,10.80
2019-05-25T11:57:40.924Z,11.33
2019-05-25T12:00:23.576Z,11.73
2019-05-25T12:02:41.477Z,11.00
2019-05-25T12:05:10.268Z,11.17
2019-05-25T12:07:38.552Z,11.63
2019-05-25T12:10:08.035Z,12.53
2019-05-25T12:12:36.292Z,12.03
2019-05-25T12:15:08.615Z,11.80
2019-05-25T12:17:36.911Z,11.50
2019-05-25T12:20:06.670Z,11.33
2019-05-25T12:22:35.021Z,12.47
2019-05-25T12:25:04.858Z,10.97
2019-05-25T12:27:33.155Z,11.97
2019-05-25T12:30:01.459Z,11.50
2019-05-25T12:32:29.754Z,10.57
2019-05-25T12:34:58.065Z,11.07
2019-05-25T12:37:26.640Z,9.47
2019-05-25T12:39:54.935Z,9.83
2019-05-25T12:42:23.221Z,8.63
2019-05-25T12:44:51.515Z,9.87
2019-05-25T12:47:19.809Z,8.80
2019-05-25T12:49:50.879Z,7.83
2019-05-25T12:52:18.111Z,8.67
2019-05-25T12:54:46.402Z,8.37
2019-05-25T12:57:14.682Z,8.13
2019-05-25T12:59:42.948Z,7.80
2019-05-25T13:02:11.245Z,8.43
2019-05-25T13:04:39.525Z,7.57
2019-05-25T13:07:07.817Z,7.27
2019-05-25T13:09:36.090Z,7.10
2019-05-25T13:12:04.621Z,7.40
2019-05-25T13:14:33.204Z,6.83
2019-05-25T13:17:01.493Z,7.63
2019-05-25T13:19:29.774Z,6.77
2019-05-25T13:21:58.057Z,7.13
2019-05-25T13:24:26.343Z,6.13
2019-05-25T13:26:54.638Z,6.60
2019-05-25T13:29:22.927Z,6.37
2019-05-25T13:31:51.220Z,6.63
2019-05-25T13:34:19.527Z,6.50
2019-05-25T13:36:47.814Z,6.60
2019-05-25T13:39:16.357Z,5.87
2019-05-25T13:41:43.756Z,5.83
2019-05-25T13:44:11.970Z,5.07
2019-05-25T13:46:40.811Z,5.43
2019-05-25T13:49:09.106Z,5.47
2019-05-25T13:51:37.386Z,5.23
2019-05-25T13:54:05.697Z,5.40
2019-05-25T13:56:33.960Z,5.37
2019-05-25T13:59:02.245Z,5.80
2019-05-25T14:01:30.546Z,5.57
2019-05-25T14:03:58.869Z,5.83
2019-05-25T14:06:27.131Z,5.67
2019-05-25T14:08:55.419Z,5.57
2019-05-25T14:11:23.703Z,6.03
2019-05-25T14:13:51.990Z,5.80
2019-05-25T14:16:20.267Z,5.70
2019-05-25T14:18:48.561Z,5.40
2019-05-25T14:21:16.840Z,5.03
2019-05-25T14:23:45.110Z,4.97
2019-05-25T14:26:13.414Z,4.77
2019-05-25T14:28:41.701Z,5.00
2019-05-25T14:31:09.998Z,4.80
2019-05-25T14:33:38.273Z,5.10
2019-05-25T14:36:06.577Z,4.73
2019-05-25T14:38:34.856Z,5.17
2019-05-25T14:41:03.159Z,4.40
2019-05-25T14:43:31.443Z,4.17
2019-05-25T14:45:59.737Z,4.80
2019-05-25T14:48:28.007Z,4.93
2019-05-25T14:50:56.303Z,4.33
2019-05-25T14:53:24.604Z,5.63
2019-05-25T14:55:52.906Z,4.40
2019-05-25T14:58:21.192Z,4.70
2019-05-25T15:00:49.902Z,4.50
2019-05-25T15:03:18.204Z,6.13
2019-05-25T15:05:46.478Z,4.73
2019-05-25T15:08:14.832Z,3.77
2019-05-25T15:10:43.130Z,3.30
2019-05-25T15:13:11.407Z,3.73
2019-05-25T15:15:39.957Z,5.17
2019-05-25T15:18:08.236Z,5.27
2019-05-25T15:20:36.552Z,3.77
2019-05-25T15:23:04.901Z,3.30
2019-05-25T15:25:33.180Z,2.73
2019-05-25T15:28:01.472Z,3.53
2019-05-25T15:30:29.748Z,3.00
2019-05-25T15:32:58.039Z,2.67
2019-05-25T15:35:26.394Z,3.07
2019-05-25T15:37:54.715Z,2.70
2019-05-25T15:40:23.314Z,2.47
2019-05-25T15:42:51.598Z,2.53
2019-05-25T15:45:20.107Z,2.93
2019-05-25T15:47:48.484Z,2.77
2019-05-25T15:50:17.121Z,2.80
2019-05-25T15:52:45.475Z,3.30
2019-05-25T15:55:13.768Z,3.50
2019-05-25T15:57:42.058Z,2.87
2019-05-25T16:00:11.744Z,2.57
2019-05-25T16:02:40.041Z,2.33
2019-05-25T16:05:08.853Z,2.37
2019-05-25T16:07:40.493Z,3.20
2019-05-25T16:10:09.815Z,3.30
2019-05-25T16:12:38.278Z,3.00
2019-05-25T16:15:08.954Z,3.17
2019-05-25T16:17:37.382Z,2.60
2019-05-25T16:20:06.301Z,2.30
2019-05-25T16:22:34.665Z,2.57
2019-05-25T16:25:03.032Z,2.87
2019-05-25T16:27:31.319Z,2.80
2019-05-25T16:29:59.606Z,2.40
2019-05-25T16:32:27.901Z,2.40
2019-05-25T16:34:56.181Z,2.10
2019-05-25T16:37:24.574Z,2.60
2019-05-25T16:39:53.143Z,2.37
2019-05-25T16:42:21.610Z,2.83
2019-05-25T16:44:49.900Z,2.60
2019-05-25T16:47:18.183Z,2.67
2019-05-25T16:49:47.277Z,2.60
2019-05-25T16:52:15.543Z,2.40
2019-05-25T16:54:43.906Z,2.23
2019-05-25T16:57:12.211Z,2.23
2019-05-25T16:59:40.577Z,1.83
2019-05-25T17:02:08.860Z,2.07
2019-05-25T17:04:37.156Z,2.60
2019-05-25T17:07:05.434Z,3.13
2019-05-25T17:09:33.732Z,2.83
2019-05-25T17:12:02.008Z,2.80
2019-05-25T17:14:30.303Z,2.87
2019-05-25T17:16:58.575Z,3.10
2019-05-25T17:19:26.943Z,3.30
2019-05-25T17:21:55.213Z,3.03
2019-05-25T17:24:23.487Z,2.40
2019-05-25T17:26:51.781Z,2.80
2019-05-25T17:29:20.061Z,3.30
2019-05-25T17:31:48.346Z,3.50
2019-05-25T17:34:16.630Z,2.93
2019-05-25T17:36:44.920Z,2.97
2019-05-25T17:39:13.202Z,3.03
2019-05-25T17:41:41.498Z,2.93
2019-05-25T17:44:09.774Z,2.40
2019-05-25T17:46:38.069Z,2.47
2019-05-25T17:49:06.344Z,3.00
2019-05-25T17:51:34.635Z,2.40
2019-05-25T17:54:02.976Z,3.17
2019-05-25T17:56:31.277Z,3.37
2019-05-25T17:58:59.554Z,3.17
2019-05-25T18:01:27.840Z,2.90
2019-05-25T18:04:06.366Z,3.30
2019-05-25T18:06:26.210Z,2.97
2019-05-25T18:08:54.491Z,2.83
2019-05-25T18:11:22.808Z,3.47
2019-05-25T18:13:51.085Z,3.30
2019-05-25T18:16:19.364Z,3.40
2019-05-25T18:18:47.665Z,3.37
2019-05-25T18:21:15.933Z,2.87
2019-05-25T18:23:44.235Z,3.10
2019-05-25T18:26:12.505Z,3.33
2019-05-25T18:28:40.802Z,4.27
2019-05-25T18:31:09.075Z,3.50
2019-05-25T18:33:37.372Z,3.10
2019-05-25T18:36:05.714Z,3.40
2019-05-25T18:38:34.011Z,3.40
2019-05-25T18:41:02.283Z,3.67
2019-05-25T18:43:30.575Z,3.23
2019-05-25T18:45:58.852Z,3.20
2019-05-25T18:48:27.144Z,3.00
2019-05-25T18:50:55.428Z,2.70
2019-05-25T18:53:23.723Z,2.97
2019-05-25T18:55:51.999Z,3.10
2019-05-25T18:58:20.296Z,3.20
2019-05-25T19:00:48.572Z,2.90
2019-05-25T19:03:16.867Z,3.00
2019-05-25T19:05:45.138Z,2.80
2019-05-25T19:08:13.429Z,2.77
2019-05-25T19:10:41.704Z,2.90
2019-05-25T19:13:13.129Z,3.33
2019-05-25T19:15:41.423Z,3.17
2019-05-25T19:18:09.710Z,3.00
2019-05-25T19:20:38.005Z,2.67
2019-05-25T19:23:06.360Z,3.40
2019-05-25T19:25:34.673Z,3.10
2019-05-25T19:28:02.945Z,3.30
2019-05-25T19:30:31.233Z,3.40
2019-05-25T19:32:59.515Z,3.40
2019-05-25T19:35:27.814Z,3.70
2019-05-25T19:37:56.098Z,3.17
2019-05-25T19:40:24.458Z,2.90
2019-05-25T19:42:52.737Z,2.80
2019-05-25T19:45:21.214Z,2.70
2019-05-25T19:47:49.478Z,3.20
2019-05-25T19:50:17.844Z,2.87
2019-05-25T19:52:46.121Z,3.47
2019-05-25T19:55:15.246Z,3.30
2019-05-25T19:57:45.453Z,3.30
2019-05-25T20:00:13.913Z,3.47
2019-05-25T20:02:42.193Z,3.30
2019-05-25T20:05:16.696Z,3.13
2019-05-25T20:07:40.833Z,3.10
2019-05-25T20:10:10.284Z,2.80
2019-05-25T20:12:38.538Z,3.00
2019-05-25T20:15:10.439Z,3.10
2019-05-25T20:17:38.680Z,2.60
2019-05-25T20:20:07.687Z,3.30
2019-05-25T20:22:35.981Z,3.10
2019-05-25T20:25:06.100Z,2.77
2019-05-25T20:27:34.389Z,2.60
2019-05-25T20:30:03.035Z,2.70
2019-05-25T20:32:31.324Z,3.23
2019-05-25T20:34:59.593Z,2.90
2019-05-25T20:37:27.889Z,2.93
2019-05-25T20:39:56.163Z,3.27
2019-05-25T20:42:24.456Z,2.73
2019-05-25T20:44:52.804Z,2.70
2019-05-25T20:47:21.106Z,3.37
2019-05-25T20:49:49.371Z,2.80
2019-05-25T20:52:17.670Z,2.87
2019-05-25T20:54:45.949Z,3.13
2019-05-25T20:57:14.244Z,2.70
2019-05-25T20:59:42.519Z,3.00
2019-05-25T21:02:10.817Z,3.20
2019-05-25T21:04:39.101Z,2.90
2019-05-25T21:07:07.386Z,3.17
2019-05-25T21:09:35.659Z,3.30
2019-05-25T21:12:04.024Z,3.23
2019-05-25T21:14:32.301Z,3.60
2019-05-25T21:17:00.614Z,3.30
2019-05-25T21:19:28.894Z,3.93
2019-05-25T21:21:57.168Z,3.30
2019-05-25T21:24:25.466Z,3.60
2019-05-25T21:26:53.777Z,3.50
2019-05-25T21:29:22.075Z,3.57
2019-05-25T21:31:50.354Z,4.07
2019-05-25T21:34:18.652Z,4.20
2019-05-25T21:36:46.932Z,4.40
2019-05-25T21:39:15.226Z,4.50
2019-05-25T21:41:43.505Z,4.20
2019-05-25T21:44:11.859Z,4.33
2019-05-25T21:46:40.082Z,5.20
2019-05-25T21:49:08.375Z,7.00
2019-05-25T21:51:36.723Z,7.57
2019-05-25T21:54:05.018Z,8.17
2019-05-25T21:56:33.298Z,7.17
2019-05-25T21:59:02.090Z,7.00
2019-05-25T22:01:30.443Z,6.67
2019-05-25T22:03:58.734Z,7.03
2019-05-25T22:06:27.008Z,6.40
2019-05-25T22:08:55.320Z,6.90
2019-05-25T22:11:23.591Z,6.30
2019-05-25T22:13:51.888Z,8.10
2019-05-25T22:16:20.167Z,7.73
2019-05-25T22:18:48.526Z,8.23
2019-05-25T22:21:16.807Z,8.97
2019-05-25T22:23:45.105Z,9.53
2019-05-25T22:26:13.417Z,9.67
2019-05-25T22:28:44.671Z,9.10
2019-05-25T22:31:11.710Z,8.60
2019-05-25T22:33:39.999Z,8.27
2019-05-25T22:36:08.282Z,8.27
2019-05-25T22:38:36.578Z,7.63
2019-05-25T22:41:04.855Z,7.37
2019-05-25T22:43:33.145Z,7.13
2019-05-25T22:46:01.659Z,6.60
2019-05-25T22:48:29.963Z,6.43
2019-05-25T22:50:58.227Z,5.93
2019-05-25T22:53:26.524Z,6.27
2019-05-25T22:55:54.812Z,6.13
2019-05-25T22:58:23.105Z,7.00
2019-05-25T23:00:51.380Z,6.17
2019-05-25T23:03:19.675Z,6.30
2019-05-25T23:05:47.958Z,6.20
2019-05-25T23:08:16.250Z,6.67
2019-05-25T23:10:44.705Z,6.50
2019-05-25T23:13:12.987Z,6.70
2019-05-25T23:15:41.272Z,7.00
2019-05-25T23:18:09.563Z,6.27
2019-05-25T23:20:37.851Z,6.10
2019-05-25T23:23:06.149Z,5.90
2019-05-25T23:25:34.421Z,6.77
2019-05-25T23:28:02.719Z,6.10
2019-05-25T23:30:31.000Z,6.13
2019-05-25T23:32:59.269Z,6.80
2019-05-25T23:35:27.558Z,6.43
2019-05-25T23:37:55.837Z,6.23
2019-05-25T23:40:24.138Z,6.50
2019-05-25T23:42:52.410Z,6.00
2019-05-25T23:45:20.938Z,6.13
2019-05-25T23:47:49.224Z,6.00
2019-05-25T23:50:17.935Z,6.00
2019-05-25T23:52:46.218Z,5.83
2019-05-25T23:55:15.251Z,5.87
2019-05-25T23:57:43.533Z,6.27
